createdAt,value
2022-11-25T00:01:52.393Z,5.63
2022-11-25T00:06:53.592Z,5.57
2022-11-25T00:11:54.310Z,5.66
2022-11-25T00:16:55.144Z,5.51
2022-11-25T00:21:55.978Z,5.44
2022-11-25T00:26:56.962Z,5.39
2022-11-25T00:31:57.783Z,5.43
2022-11-25T00:36:58.660Z,5.49
2022-11-25T00:42:17.986Z,5.44
2022-11-25T00:47:20.668Z,5.37
2022-11-25T00:52:25.079Z,5.33
2022-11-25T00:57:26.030Z,5.31
2022-11-25T01:02:27.216Z,5.31
2022-11-25T01:07:28.629Z,5.14
2022-11-25T01:12:29.738Z,5.09
2022-11-25T01:17:31.653Z,5.16
2022-11-25T01:22:32.421Z,5.24
2022-11-25T01:27:33.170Z,5.17
2022-11-25T01:32:33.978Z,5.08
2022-11-25T01:37:34.810Z,5.00
2022-11-25T01:42:47.556Z,5.08
2022-11-25T01:47:50.441Z,4.98
2022-11-25T01:52:54.583Z,4.88
2022-11-25T01:58:30.943Z,4.93
2022-11-25T02:03:38.578Z,4.91
2022-11-25T02:08:42.683Z,4.97
2022-11-25T02:13:46.933Z,4.99
2022-11-25T02:18:49.695Z,4.92
2022-11-25T02:23:59.709Z,4.96
2022-11-25T02:29:00.915Z,4.84
2022-11-25T02:34:01.732Z,4.69
2022-11-25T02:39:02.820Z,4.79
2022-11-25T02:44:06.917Z,4.75
2022-11-25T02:49:09.573Z,4.70
2022-11-25T02:54:13.106Z,4.76
2022-11-25T02:59:13.872Z,4.80
2022-11-25T03:04:14.794Z,4.84
2022-11-25T03:09:15.929Z,4.96
2022-11-25T03:14:17.241Z,5.03
2022-11-25T03:19:17.968Z,4.89
2022-11-25T03:24:18.725Z,4.76
2022-11-25T03:29:21.574Z,4.65
2022-11-25T03:34:22.499Z,4.73
2022-11-25T03:39:23.827Z,4.53
2022-11-25T03:44:24.994Z,4.13
2022-11-25T03:49:26.125Z,4.26
2022-11-25T03:54:28.041Z,4.10
2022-11-25T03:59:46.275Z,4.18
2022-11-25T04:04:48.045Z,4.25
2022-11-25T04:09:49.927Z,4.36
2022-11-25T04:14:53.237Z,4.29
2022-11-25T04:19:54.161Z,4.15
2022-11-25T04:24:55.078Z,4.11
2022-11-25T04:29:58.737Z,4.28
2022-11-25T04:34:59.648Z,4.18
2022-11-25T04:40:01.071Z,4.13
2022-11-25T04:45:22.898Z,4.12
2022-11-25T04:50:25.416Z,4.19
2022-11-25T04:55:31.636Z,4.12
2022-11-25T05:00:33.785Z,4.03
2022-11-25T05:05:37.671Z,4.05
2022-11-25T05:10:38.616Z,4.14
2022-11-25T05:15:39.904Z,4.02
2022-11-25T05:20:41.731Z,4.03
2022-11-25T05:25:42.668Z,4.02
2022-11-25T05:31:03.123Z,4.06
2022-11-25T05:36:05.011Z,4.12
2022-11-25T05:41:14.947Z,4.17
2022-11-25T05:46:18.238Z,4.31
2022-11-25T05:51:24.380Z,4.23
2022-11-25T05:56:25.329Z,4.16
2022-11-25T06:01:40.836Z,4.28
2022-11-25T06:06:41.833Z,4.44
2022-11-25T06:11:43.165Z,4.37
2022-11-25T06:16:43.894Z,4.37
2022-11-25T06:21:55.323Z,4.39
2022-11-25T06:26:56.536Z,4.35
2022-11-25T06:31:57.611Z,4.34
2022-11-25T06:37:15.232Z,4.43
2022-11-25T06:42:16.292Z,4.48
2022-11-25T06:47:17.150Z,4.52
2022-11-25T06:52:17.937Z,4.58
2022-11-25T06:57:19.260Z,4.55
2022-11-25T07:02:20.182Z,4.57
2022-11-25T07:07:21.025Z,4.53
2022-11-25T07:12:23.821Z,4.49
2022-11-25T07:17:27.609Z,4.60
2022-11-25T07:22:28.369Z,4.50
2022-11-25T07:27:29.142Z,4.51
2022-11-25T07:32:32.736Z,4.47
2022-11-25T07:37:33.461Z,4.62
2022-11-25T07:42:34.566Z,4.65
2022-11-25T07:47:36.288Z,4.71
2022-11-25T07:52:38.812Z,5.10
2022-11-25T07:57:39.544Z,4.97
2022-11-25T08:02:40.404Z,4.88
2022-11-25T08:07:41.325Z,4.92
2022-11-25T08:12:42.359Z,5.04
2022-11-25T08:17:43.106Z,5.13
2022-11-25T08:22:43.953Z,5.16
2022-11-25T08:27:44.747Z,5.25
2022-11-25T08:32:45.577Z,5.40
2022-11-25T08:37:46.437Z,5.47
2022-11-25T08:42:47.596Z,5.52
2022-11-25T08:47:48.340Z,5.65
2022-11-25T08:52:49.192Z,5.96
2022-11-25T08:57:49.918Z,6.17
2022-11-25T09:02:50.791Z,6.43
2022-11-25T09:07:51.709Z,6.40
2022-11-25T09:12:52.750Z,6.40
2022-11-25T09:18:05.018Z,6.42
2022-11-25T09:23:07.889Z,7.24
2022-11-25T09:28:08.998Z,7.66
2022-11-25T09:33:09.815Z,7.97
2022-11-25T09:38:10.909Z,8.04
2022-11-25T09:44:50.039Z,7.30
2022-11-25T09:50:38.426Z,7.45
2022-11-25T09:55:43.995Z,7.69
2022-11-25T10:00:47.124Z,7.68
2022-11-25T10:06:34.185Z,7.63
2022-11-25T10:12:39.201Z,7.65
2022-11-25T10:17:53.429Z,7.62
2022-11-25T10:23:02.784Z,7.52
2022-11-25T10:28:15.952Z,7.69
2022-11-25T10:33:53.515Z,7.83
2022-11-25T10:39:10.673Z,7.93
2022-11-25T10:44:28.142Z,8.07
2022-11-25T10:52:11.528Z,8.22
2022-11-25T10:57:18.413Z,9.14
2022-11-25T11:02:36.453Z,8.93
2022-11-25T11:07:40.974Z,8.70
2022-11-25T11:13:05.984Z,8.24
2022-11-25T11:20:12.264Z,8.16
2022-11-25T11:25:33.010Z,8.04
2022-11-25T11:30:33.941Z,8.04
2022-11-25T11:38:19.665Z,8.23
2022-11-25T11:45:04.741Z,8.64
2022-11-25T11:50:26.706Z,9.80
2022-11-25T11:56:33.548Z,9.92
2022-11-25T12:03:21.368Z,9.64
2022-11-25T12:08:31.314Z,9.48
2022-11-25T12:17:22.788Z,9.17
2022-11-25T12:22:33.443Z,8.66
2022-11-25T12:27:40.595Z,8.60
2022-11-25T12:35:59.793Z,8.57
2022-11-25T12:42:11.297Z,9.44
2022-11-25T12:47:12.457Z,9.86
2022-11-25T12:55:45.792Z,10.47
2022-11-25T13:04:13.538Z,10.47
2022-11-25T13:09:59.025Z,10.24
2022-11-25T13:15:45.313Z,10.14
2022-11-25T13:20:49.762Z,9.18
2022-11-25T13:25:52.272Z,8.83
2022-11-25T13:30:53.316Z,8.72
2022-11-25T13:35:56.030Z,8.71
2022-11-25T13:40:59.051Z,9.50
2022-11-25T13:46:01.344Z,10.59
2022-11-25T13:51:20.124Z,10.99
2022-11-25T13:56:33.482Z,11.06
2022-11-25T14:01:34.972Z,10.97
2022-11-25T14:07:20.405Z,10.78
2022-11-25T14:15:09.912Z,10.82
2022-11-25T14:20:42.490Z,10.78
2022-11-25T14:25:51.495Z,9.62
2022-11-25T14:30:58.703Z,9.11
2022-11-25T14:36:11.156Z,8.73
2022-11-25T14:41:48.681Z,8.47
2022-11-25T14:46:54.390Z,8.32
2022-11-25T14:51:55.146Z,8.24
2022-11-25T14:56:56.207Z,8.15
2022-11-25T15:01:57.350Z,8.00
2022-11-25T15:07:01.688Z,8.10
2022-11-25T15:12:12.033Z,8.15
2022-11-25T15:17:31.622Z,8.12
2022-11-25T15:22:32.727Z,8.12
2022-11-25T15:27:33.604Z,8.13
2022-11-25T15:32:37.624Z,8.10
2022-11-25T15:37:38.795Z,7.94
2022-11-25T15:42:41.786Z,7.89
2022-11-25T15:47:44.993Z,7.95
2022-11-25T15:52:47.937Z,7.84
2022-11-25T15:57:50.992Z,7.62
2022-11-25T16:02:54.684Z,7.52
2022-11-25T16:07:58.603Z,7.50
2022-11-25T16:13:36.771Z,7.36
2022-11-25T16:19:26.470Z,7.14
2022-11-25T16:24:40.779Z,7.00
2022-11-25T16:30:10.974Z,6.82
2022-11-25T16:35:18.537Z,6.73
2022-11-25T16:40:19.420Z,6.81
2022-11-25T16:45:23.099Z,6.85
2022-11-25T16:50:23.958Z,6.80
2022-11-25T16:55:25.053Z,6.99
2022-11-25T17:00:25.783Z,7.06
2022-11-25T17:05:26.954Z,6.98
2022-11-25T17:10:27.853Z,6.93
2022-11-25T17:15:34.789Z,7.00
2022-11-25T17:20:35.761Z,7.02
2022-11-25T17:25:37.264Z,6.98
2022-11-25T17:30:38.603Z,6.94
2022-11-25T17:35:39.349Z,6.87
2022-11-25T17:40:42.771Z,6.73
2022-11-25T17:45:44.088Z,6.70
2022-11-25T17:50:46.819Z,6.68
2022-11-25T17:55:47.593Z,6.63
2022-11-25T18:00:48.752Z,6.50
2022-11-25T18:05:50.060Z,6.43
2022-11-25T18:10:51.100Z,6.50
2022-11-25T18:15:52.198Z,6.37
2022-11-25T18:20:55.103Z,6.37
2022-11-25T18:25:59.363Z,6.35
2022-11-25T18:31:04.130Z,6.23
2022-11-25T18:36:06.051Z,6.22
2022-11-25T18:41:17.881Z,6.23
2022-11-25T18:46:18.686Z,6.25
2022-11-25T18:51:19.952Z,6.17
2022-11-25T18:56:20.682Z,6.20
2022-11-25T19:01:23.122Z,6.25
2022-11-25T19:06:27.268Z,6.31
2022-11-25T19:11:32.274Z,6.40
2022-11-25T19:16:33.184Z,6.46
2022-11-25T19:21:34.271Z,6.50
2022-11-25T19:26:41.057Z,6.51
2022-11-25T19:31:41.887Z,6.43
2022-11-25T19:36:42.797Z,6.35
2022-11-25T19:41:44.519Z,6.22
2022-11-25T19:47:13.800Z,6.20
2022-11-25T19:52:19.980Z,6.12
2022-11-25T19:57:23.068Z,6.05
2022-11-25T20:02:26.042Z,6.02
2022-11-25T20:07:29.259Z,5.97
2022-11-25T20:12:30.157Z,5.98
2022-11-25T20:17:32.954Z,5.90
2022-11-25T20:22:36.936Z,5.91
2022-11-25T20:27:37.720Z,5.90
2022-11-25T20:32:38.614Z,5.81
2022-11-25T20:37:50.766Z,5.92
2022-11-25T20:42:52.518Z,5.90
2022-11-25T20:47:53.272Z,5.73
2022-11-25T20:52:54.064Z,5.75
2022-11-25T20:57:54.969Z,5.74
2022-11-25T21:02:56.485Z,5.73
2022-11-25T21:07:57.414Z,5.65
2022-11-25T21:12:58.491Z,5.65
2022-11-25T21:17:59.230Z,5.66
2022-11-25T21:23:06.982Z,5.64
2022-11-25T21:28:16.358Z,5.61
2022-11-25T21:33:17.423Z,5.68
2022-11-25T21:38:22.551Z,5.64
2022-11-25T21:43:27.676Z,5.57
2022-11-25T21:48:30.218Z,5.52
2022-11-25T21:53:37.011Z,5.51
2022-11-25T21:58:39.712Z,5.54
2022-11-25T22:03:40.444Z,5.55
2022-11-25T22:08:41.260Z,5.55
2022-11-25T22:13:43.700Z,5.53
2022-11-25T22:18:44.671Z,5.59
2022-11-25T22:23:45.506Z,5.62
2022-11-25T22:28:50.836Z,5.62
2022-11-25T22:33:51.786Z,5.64
2022-11-25T22:38:52.538Z,5.62
2022-11-25T22:43:53.411Z,5.56
2022-11-25T22:48:54.461Z,5.53
2022-11-25T22:53:55.178Z,5.55
2022-11-25T22:58:59.451Z,5.38
2022-11-25T23:04:00.185Z,5.35
2022-11-25T23:09:02.230Z,5.37
2022-11-25T23:14:03.084Z,5.38
2022-11-25T23:19:04.215Z,5.40
2022-11-25T23:24:11.864Z,5.34
2022-11-25T23:29:12.633Z,5.29
2022-11-25T23:34:13.912Z,5.33
2022-11-25T23:39:18.872Z,5.31
2022-11-25T23:44:30.663Z,5.20
2022-11-25T23:49:38.228Z,5.19
2022-11-25T23:54:41.965Z,5.15
2022-11-25T23:59:43.427Z,5.12
